Hawkins, Wisconsin
Current Conditions -  °F | °C
As of 6:35 PM on Sunday 21 Dec 2014 (Local Time) from KRCX Reporting Station
Unknown Precip Unknown Precip  
Wind Chill: 27°   Ceiling: 600
Heat Index: 34°   Visibility: 2.5mi
Dew Point: 33°   Wind: 8mph
Humidity: 96%   Direction: 150°SSE
Pressure: 29.81"   Gusts: NA
Location:  45.51°N, 90.72°W
Report Text: KRCX 220035Z AUTO 15007KT 2 1/2SM UP OVC006 01/01 A2981 RMK AO2 P0001 T00110006
Loading
Personal Weather Stations






























Interactive Weather Map New forecast layout! Learn more

10-Day Weather Forecast

Advertisements
Track Severe Weather on mobile